This is the latest recevied weather packets stored in our database for station/object DC1NF-7. If no packets are shown the sender has not sent any weather packets the latest 10 day(s).
| Time | Temp. | Humidity | Pressure | Rain* | Wind** | Luminosity | Snow |
|---|---|---|---|---|---|---|---|
| 1777847727 | 17.78° C | 49% | 1014.4 hPa | 0 mm | - | 0 W/m² | - |
| 1777847124 | 17.78° C | 49% | 1014.5 hPa | 0 mm | - | 0 W/m² | - |
| 1777846519 | 17.78° C | 49% | 1014.4 hPa | 0 mm | - | 0 W/m² | - |
| 1777845915 | 18.33° C | 48% | 1014.1 hPa | 0 mm | - | 0 W/m² | - |
| 1777845371 | 17.78° C | 49% | 1014 hPa | 0 mm | - | 0 W/m² | - |
| 1777844767 | 17.22° C | 54% | 1014.3 hPa | 0 mm | - | 0 W/m² | - |
| 1777844166 | 16.11° C | 60% | 1014 hPa | 0 mm | - | 0 W/m² | - |
| 1777843560 | 15° C | 69% | 1014.1 hPa | 0 mm | - | 0 W/m² | - |
| 1777842957 | 15.56° C | 69% | 1014 hPa | 0 mm | - | 0 W/m² | - |
| 1777842356 | 16.11° C | 67% | 1013.7 hPa | 0 mm | - | 0 W/m² | - |
| 1777841749 | 15.56° C | 68% | 1013.6 hPa | 0 mm | - | 0 W/m² | - |
| 1777841144 | 15.56° C | 69% | 1013.5 hPa | 0 mm | - | 0 W/m² | - |
| 1777840541 | 16.11° C | 67% | 1013.5 hPa | 0 mm | - | 0 W/m² | - |
| 1777839938 | 16.11° C | 67% | 1013.4 hPa | 0 mm | - | 0 W/m² | - |
| 1777839335 | 16.11° C | 65% | 1013.4 hPa | 0 mm | - | 0 W/m² | - |
| 1777838732 | 16.67° C | 64% | 1013.3 hPa | 0 mm | - | 0 W/m² | - |
| 1777838129 | 16.67° C | 62% | 1013.1 hPa | 0 mm | - | 0 W/m² | - |
| 1777837526 | 17.22° C | 62% | 1013 hPa | 0 mm | - | 0 W/m² | - |
| 1777836922 | 17.22° C | 62% | 1013 hPa | 0 mm | - | 0 W/m² | - |
| 1777836317 | 17.78° C | 61% | 1012.7 hPa | 0 mm | - | 0 W/m² | - |
| 1777835777 | 17.78° C | 60% | 1012.7 hPa | 0 mm | - | 0 W/m² | - |
| 1777835170 | 18.33° C | 57% | 1012.5 hPa | 0 mm | - | 0 W/m² | - |
| 1777834570 | 18.89° C | 55% | 1012.5 hPa | 0 mm | - | 1 W/m² | - |
| 1777833966 | 19.44° C | 52% | 1012.5 hPa | 0 mm | - | 2 W/m² | - |
| 1777833360 | 20° C | 50% | 1012.5 hPa | 0 mm | - | 4 W/m² | - |
* Rain latest hour (hover to see other rain measurements)
** Current wind speed in m/s (hover to see current wind gust speed)